createdAt,value
2019-02-08T00:04:52.105Z,84.42
2019-02-08T00:09:56.359Z,84.56
2019-02-08T00:15:01.648Z,84.71
2019-02-08T00:20:07.147Z,84.77
2019-02-08T00:25:14.482Z,85.02
2019-02-08T00:30:21.137Z,84.84
2019-02-08T00:35:26.364Z,83.83
2019-02-08T00:40:30.685Z,83.82
2019-02-08T00:45:35.341Z,83.32
2019-02-08T00:50:39.594Z,83.31
2019-02-08T00:55:43.999Z,83.20
2019-02-08T01:00:48.248Z,83.22
2019-02-08T01:05:52.591Z,83.21
2019-02-08T01:10:57.238Z,83.18
2019-02-08T01:16:01.932Z,83.34
2019-02-08T01:21:06.185Z,83.43
2019-02-08T01:26:10.587Z,83.68
2019-02-08T01:31:14.826Z,83.33
2019-02-08T01:36:19.063Z,83.37
2019-02-08T01:41:23.305Z,83.56
2019-02-08T01:46:28.577Z,83.68
2019-02-08T01:51:32.819Z,83.90
2019-02-08T01:56:37.224Z,84.01
2019-02-08T02:01:41.684Z,84.10
2019-02-08T02:06:45.943Z,84.39
2019-02-08T02:11:50.358Z,84.82
2019-02-08T02:16:54.667Z,84.74
2019-02-08T02:21:58.944Z,84.51
2019-02-08T02:27:03.232Z,84.24
2019-02-08T02:32:07.480Z,84.21
2019-02-08T02:37:11.831Z,83.90
2019-02-08T02:42:16.180Z,84.30
2019-02-08T02:47:20.609Z,84.03
2019-02-08T02:52:24.838Z,84.43
2019-02-08T02:57:29.232Z,84.58
2019-02-08T03:02:33.474Z,84.54
2019-02-08T03:07:37.714Z,84.64
2019-02-08T03:12:41.979Z,84.64
2019-02-08T03:17:46.299Z,84.79
2019-02-08T03:22:52.864Z,84.66
2019-02-08T03:27:57.348Z,84.83
2019-02-08T03:33:01.635Z,84.42
2019-02-08T03:38:05.929Z,84.82
2019-02-08T03:43:10.343Z,84.98
2019-02-08T03:48:14.588Z,84.82
2019-02-08T03:53:18.828Z,85.13
2019-02-08T03:58:26.314Z,85.25
2019-02-08T04:03:30.708Z,85.22
2019-02-08T04:08:34.956Z,85.45
2019-02-08T04:13:39.234Z,85.36
2019-02-08T04:18:43.479Z,85.72
2019-02-08T04:23:47.833Z,86.22
2019-02-08T04:28:52.389Z,86.55
2019-02-08T04:33:56.673Z,86.49
2019-02-08T04:39:00.960Z,86.86
2019-02-08T04:44:05.197Z,86.76
2019-02-08T04:49:09.563Z,86.93
2019-02-08T04:54:13.925Z,86.86
2019-02-08T04:59:18.303Z,86.79
2019-02-08T05:04:22.652Z,86.67
2019-02-08T05:09:27.004Z,86.81
2019-02-08T05:14:32.062Z,86.70
2019-02-08T05:19:36.307Z,86.40
2019-02-08T05:24:45.765Z,86.64
2019-02-08T05:29:48.055Z,86.31
2019-02-08T05:34:52.378Z,86.36
2019-02-08T05:39:57.003Z,86.38
2019-02-08T05:45:01.310Z,86.44
2019-02-08T05:50:10.691Z,86.64
2019-02-08T05:55:19.579Z,86.57
2019-02-08T06:00:30.353Z,86.79
2019-02-08T06:05:35.188Z,86.80
2019-02-08T06:10:39.520Z,86.93
2019-02-08T06:15:43.771Z,86.94
2019-02-08T06:20:48.102Z,87.46
2019-02-08T06:25:52.443Z,87.56
2019-02-08T06:30:56.701Z,87.25
2019-02-08T06:36:00.947Z,86.96
2019-02-08T06:41:05.442Z,87.26
2019-02-08T06:46:09.809Z,87.41
2019-02-08T06:51:14.192Z,87.56
2019-02-08T06:56:36.258Z,87.50
2019-02-08T07:01:51.090Z,87.50
2019-02-08T07:07:14.411Z,87.66
2019-02-08T07:12:37.599Z,87.58
2019-02-08T07:18:15.891Z,87.56
2019-02-08T07:24:17.184Z,87.32
2019-02-08T07:35:10.553Z,86.94
2019-02-08T07:40:56.315Z,87.27
2019-02-08T07:46:39.206Z,86.48
2019-02-08T07:58:10.722Z,86.05
2019-02-08T08:03:53.035Z,86.28
2019-02-08T08:09:36.634Z,86.27
2019-02-08T08:15:20.220Z,86.17
2019-02-08T08:21:04.285Z,86.66
2019-02-08T08:26:47.880Z,86.49
2019-02-08T08:32:10.688Z,86.38
2019-02-08T08:37:53.005Z,86.21
2019-02-08T08:49:29.257Z,86.07
2019-02-08T08:55:11.539Z,86.05
2019-02-08T09:01:02.908Z,85.94
2019-02-08T09:06:45.217Z,85.44
2019-02-08T09:12:22.208Z,85.87
2019-02-08T09:18:11.312Z,85.55
2019-02-08T09:23:58.540Z,85.03
2019-02-08T09:29:38.791Z,85.18
2019-02-08T09:35:18.217Z,85.13
2019-02-08T09:40:57.840Z,84.79
2019-02-08T09:46:51.642Z,85.08
2019-02-08T09:52:42.651Z,84.97
2019-02-08T09:58:27.751Z,85.39
2019-02-08T10:04:12.646Z,84.77
2019-02-08T10:09:52.173Z,84.98
2019-02-08T10:15:33.429Z,84.81
2019-02-08T10:21:20.123Z,84.92
2019-02-08T10:26:56.675Z,84.76
2019-02-08T10:32:39.025Z,84.32
2019-02-08T10:38:21.584Z,83.85
2019-02-08T10:44:03.875Z,83.19
2019-02-08T10:49:46.264Z,82.51
2019-02-08T10:55:28.724Z,82.95
2019-02-08T11:01:11.089Z,82.65
2019-02-08T11:06:53.364Z,83.03
2019-02-08T11:12:35.632Z,83.25
2019-02-08T11:18:17.999Z,82.86
2019-02-08T11:23:22.225Z,82.65
2019-02-08T11:39:16.346Z,82.30
2019-02-08T11:45:00.874Z,81.22
2019-02-08T11:50:24.168Z,81.00
2019-02-08T11:55:28.464Z,80.79
2019-02-08T12:01:12.064Z,80.64
2019-02-08T12:06:16.343Z,80.11
2019-02-08T12:11:39.582Z,79.89
2019-02-08T12:22:14.367Z,79.68
2019-02-08T12:27:18.675Z,79.72
2019-02-08T12:32:22.999Z,79.44
2019-02-08T12:37:46.260Z,79.45
2019-02-08T12:43:01.666Z,80.25
2019-02-08T12:48:17.478Z,81.04
2019-02-08T12:53:40.689Z,80.72
2019-02-08T13:03:54.963Z,80.90
2019-02-08T13:08:59.359Z,80.84
2019-02-08T13:14:22.660Z,80.70
2019-02-08T13:19:26.887Z,80.42
2019-02-08T13:24:50.192Z,80.75
2019-02-08T13:30:13.420Z,80.40
2019-02-08T13:41:25.998Z,80.79
2019-02-08T13:46:30.255Z,80.83
2019-02-08T13:51:34.550Z,80.53
2019-02-08T13:56:38.776Z,80.66
2019-02-08T14:01:43.037Z,80.66
2019-02-08T14:12:16.184Z,80.71
2019-02-08T14:22:30.450Z,81.16
2019-02-08T14:27:35.067Z,81.09
2019-02-08T14:32:39.300Z,80.80
2019-02-08T14:38:22.963Z,80.91
2019-02-08T14:43:27.190Z,81.12
2019-02-08T14:48:42.932Z,81.52
2019-02-08T15:04:25.873Z,81.50
2019-02-08T15:09:30.095Z,82.09
2019-02-08T15:14:34.722Z,81.90
2019-02-08T15:19:58.054Z,82.12
2019-02-08T15:25:21.240Z,82.20
2019-02-08T15:30:44.540Z,82.58
2019-02-08T15:36:07.847Z,82.79
2019-02-08T15:41:51.509Z,82.87
2019-02-08T15:46:56.185Z,82.87
2019-02-08T15:52:13.289Z,83.10
2019-02-08T15:57:17.668Z,83.36
2019-02-08T16:02:40.990Z,83.63
2019-02-08T16:13:15.115Z,83.46
2019-02-08T16:24:07.015Z,83.63
2019-02-08T16:29:30.318Z,83.57
2019-02-08T16:34:34.695Z,83.20
2019-02-08T16:39:58.050Z,83.44
2019-02-08T16:55:40.710Z,83.27
2019-02-08T17:01:04.744Z,82.91
2019-02-08T17:06:09.174Z,82.73
2019-02-08T17:11:13.481Z,82.97
2019-02-08T17:16:36.896Z,82.81
2019-02-08T17:27:11.290Z,82.13
2019-02-08T17:32:35.425Z,81.76
2019-02-08T17:38:19.374Z,81.93
2019-02-08T17:49:11.864Z,81.21
2019-02-08T17:54:16.093Z,81.10
2019-02-08T17:59:20.754Z,81.13
2019-02-08T18:04:25.104Z,80.87
2019-02-08T18:09:29.499Z,80.87
2019-02-08T18:14:52.787Z,79.98
2019-02-08T18:19:57.114Z,80.29
2019-02-08T18:30:49.923Z,79.87
2019-02-08T18:36:13.241Z,79.69
2019-02-08T18:41:17.545Z,79.35
2019-02-08T18:46:40.878Z,79.57
2019-02-08T18:57:16.498Z,79.31
2019-02-08T19:02:32.986Z,78.69
2019-02-08T19:07:37.274Z,79.02
2019-02-08T19:23:40.858Z,78.58
2019-02-08T19:29:04.540Z,78.94
2019-02-08T19:34:27.863Z,78.98
2019-02-08T19:39:32.171Z,79.09
2019-02-08T19:44:36.526Z,79.29
2019-02-08T19:49:40.797Z,78.89
2019-02-08T19:55:04.728Z,78.93
2019-02-08T20:00:50.395Z,78.73
2019-02-08T20:06:06.060Z,78.68
2019-02-08T20:11:10.368Z,78.29
2019-02-08T20:21:43.982Z,78.46
2019-02-08T20:26:48.209Z,78.33
2019-02-08T20:31:52.485Z,78.50
2019-02-08T20:37:15.943Z,78.29
2019-02-08T20:42:20.940Z,77.84
2019-02-08T20:47:25.309Z,78.35
2019-02-08T20:52:29.679Z,78.09
2019-02-08T20:57:33.900Z,78.07
2019-02-08T21:02:57.192Z,77.95
2019-02-08T21:08:41.157Z,78.02
2019-02-08T21:13:45.379Z,78.63
2019-02-08T21:18:49.623Z,78.46
2019-02-08T21:34:33.060Z,78.19
2019-02-08T21:39:37.780Z,78.53
2019-02-08T21:44:42.011Z,78.57
2019-02-08T21:49:46.303Z,78.40
2019-02-08T21:54:50.530Z,78.54
2019-02-08T21:59:54.869Z,78.23
2019-02-08T22:16:18.077Z,78.64
2019-02-08T22:21:22.308Z,78.33
2019-02-08T22:26:26.544Z,78.29
2019-02-08T22:36:43.114Z,77.79
2019-02-08T22:42:06.445Z,77.40
2019-02-08T22:47:10.728Z,77.73
2019-02-08T22:52:34.048Z,77.80
2019-02-08T22:57:57.456Z,77.43
2019-02-08T23:03:02.774Z,77.20
2019-02-08T23:08:26.440Z,77.43
2019-02-08T23:13:42.436Z,77.54
2019-02-08T23:18:46.798Z,77.28
2019-02-08T23:24:10.118Z,77.06
2019-02-08T23:34:43.706Z,76.44
2019-02-08T23:45:56.012Z,76.77
2019-02-08T23:51:19.304Z,76.72
2019-02-08T23:56:23.593Z,76.64
